sensor_id;sensor_type;location;lat;lon;timestamp;pressure;altitude;pressure_sealevel;temperature;humidity
67738;BME280;54534;43.612;1.572;2023-04-09T00:01:07;99334.91;;;18.00;42.40
67738;BME280;54534;43.612;1.572;2023-04-09T00:03:33;99330.56;;;17.99;42.83
67738;BME280;54534;43.612;1.572;2023-04-09T00:05:58;99334.91;;;18.00;42.56
67738;BME280;54534;43.612;1.572;2023-04-09T00:08:24;99327.91;;;17.99;42.85
67738;BME280;54534;43.612;1.572;2023-04-09T00:10:51;99336.72;;;17.99;42.65
67738;BME280;54534;43.612;1.572;2023-04-09T00:13:16;99329.00;;;17.96;42.63
67738;BME280;54534;43.612;1.572;2023-04-09T00:15:42;99333.34;;;17.97;42.40
67738;BME280;54534;43.612;1.572;2023-04-09T00:18:07;99328.88;;;17.98;42.34
67738;BME280;54534;43.612;1.572;2023-04-09T00:20:33;99326.22;;;17.98;42.48
67738;BME280;54534;43.612;1.572;2023-04-09T00:22:58;99323.69;;;17.96;42.36
67738;BME280;54534;43.612;1.572;2023-04-09T00:25:24;99323.56;;;17.98;42.88
67738;BME280;54534;43.612;1.572;2023-04-09T00:27:49;99321.03;;;17.96;42.64
67738;BME280;54534;43.612;1.572;2023-04-09T00:30:15;99312.91;;;17.98;42.72
67738;BME280;54534;43.612;1.572;2023-04-09T00:32:40;99318.34;;;17.96;42.43
67738;BME280;54534;43.612;1.572;2023-04-09T00:35:06;99314.84;;;17.96;42.50
67738;BME280;54534;43.612;1.572;2023-04-09T00:37:32;99316.53;;;17.97;42.64
67738;BME280;54534;43.612;1.572;2023-04-09T00:39:57;99319.31;;;17.95;42.75
67738;BME280;54534;43.612;1.572;2023-04-09T00:42:23;99316.53;;;17.97;42.75
67738;BME280;54534;43.612;1.572;2023-04-09T00:44:48;99314.84;;;17.96;42.55
67738;BME280;54534;43.612;1.572;2023-04-09T00:47:14;99314.84;;;17.96;42.36
67738;BME280;54534;43.612;1.572;2023-04-09T00:49:39;99310.47;;;17.95;42.44
67738;BME280;54534;43.612;1.572;2023-04-09T00:52:05;99307.81;;;17.95;42.48
67738;BME280;54534;43.612;1.572;2023-04-09T00:54:31;99304.31;;;17.94;42.89
67738;BME280;54534;43.612;1.572;2023-04-09T00:56:57;99308.66;;;17.95;42.59
67738;BME280;54534;43.612;1.572;2023-04-09T00:59:24;99315.78;;;17.95;42.57
67738;BME280;54534;43.612;1.572;2023-04-09T01:01:50;99320.16;;;17.96;42.48
67738;BME280;54534;43.612;1.572;2023-04-09T01:04:16;99320.25;;;17.94;42.43
67738;BME280;54534;43.612;1.572;2023-04-09T01:06:50;99311.47;;;17.94;42.68
67738;BME280;54534;43.612;1.572;2023-04-09T01:14:59;99314.13;;;17.94;42.74
67738;BME280;54534;43.612;1.572;2023-04-09T01:17:44;99314.13;;;17.94;42.38
67738;BME280;54534;43.612;1.572;2023-04-09T01:20:17;99316.03;;;17.92;42.78
67738;BME280;54534;43.612;1.572;2023-04-09T01:28:26;99308.19;;;17.90;42.44
67738;BME280;54534;43.612;1.572;2023-04-09T01:30:56;99303.81;;;17.89;42.70
67738;BME280;54534;43.612;1.572;2023-04-09T01:33:24;99299.34;;;17.89;42.53
67738;BME280;54534;43.612;1.572;2023-04-09T01:35:51;99298.63;;;17.87;42.73
67738;BME280;54534;43.612;1.572;2023-04-09T01:38:19;99310.84;;;17.90;42.54
67738;BME280;54534;43.612;1.572;2023-04-09T01:40:46;99309.97;;;17.89;42.54
67738;BME280;54534;43.612;1.572;2023-04-09T01:43:12;99304.78;;;17.88;42.58
67738;BME280;54534;43.612;1.572;2023-04-09T01:45:41;99307.44;;;17.88;42.68
67738;BME280;54534;43.612;1.572;2023-04-09T01:48:08;99312.78;;;17.88;42.71
67738;BME280;54534;43.612;1.572;2023-04-09T01:50:34;99305.66;;;17.88;42.51
67738;BME280;54534;43.612;1.572;2023-04-09T01:53:00;99314.44;;;17.89;42.49
67738;BME280;54534;43.612;1.572;2023-04-09T01:55:26;99312.78;;;17.88;42.71
67738;BME280;54534;43.612;1.572;2023-04-09T01:57:52;99307.44;;;17.88;42.71
67738;BME280;54534;43.612;1.572;2023-04-09T02:00:17;99302.97;;;17.88;42.71
67738;BME280;54534;43.612;1.572;2023-04-09T02:03:15;99308.31;;;17.88;42.28
67738;BME280;54534;43.612;1.572;2023-04-09T02:05:45;99304.78;;;17.88;42.33
67738;BME280;54534;43.612;1.572;2023-04-09T02:08:18;99300.41;;;17.87;42.54
67738;BME280;54534;43.612;1.572;2023-04-09T02:10:49;99299.56;;;17.86;42.58
67738;BME280;54534;43.612;1.572;2023-04-09T02:13:20;99303.94;;;17.87;42.47
67738;BME280;54534;43.612;1.572;2023-04-09T02:15:47;99304.06;;;17.86;42.45
67738;BME280;54534;43.612;1.572;2023-04-09T02:18:27;99304.06;;;17.86;42.59
67738;BME280;54534;43.612;1.572;2023-04-09T02:20:53;99309.47;;;17.84;42.41
67738;BME280;54534;43.612;1.572;2023-04-09T02:23:19;99314.81;;;17.84;42.51
67738;BME280;54534;43.612;1.572;2023-04-09T02:25:45;99320.13;;;17.84;42.55
67738;BME280;54534;43.612;1.572;2023-04-09T02:28:11;99316.59;;;17.84;42.73
67738;BME280;54534;43.612;1.572;2023-04-09T02:30:36;99325.44;;;17.84;42.45
67738;BME280;54534;43.612;1.572;2023-04-09T02:33:02;99317.47;;;17.84;42.37
67738;BME280;54534;43.612;1.572;2023-04-09T02:35:27;99313.94;;;17.84;42.42
67738;BME280;54534;43.612;1.572;2023-04-09T02:37:52;99309.59;;;17.83;42.21
67738;BME280;54534;43.612;1.572;2023-04-09T02:40:18;99302.50;;;17.83;42.70
67738;BME280;54534;43.612;1.572;2023-04-09T02:42:43;99302.50;;;17.83;42.45
67738;BME280;54534;43.612;1.572;2023-04-09T02:45:09;99305.16;;;17.83;42.52
67738;BME280;54534;43.612;1.572;2023-04-09T02:47:34;99304.28;;;17.83;42.57
67738;BME280;54534;43.612;1.572;2023-04-09T02:50:00;99301.63;;;17.83;42.65
67738;BME280;54534;43.612;1.572;2023-04-09T02:52:25;99306.09;;;17.82;42.63
67738;BME280;54534;43.612;1.572;2023-04-09T02:54:51;99300.78;;;17.82;42.30
67738;BME280;54534;43.612;1.572;2023-04-09T02:57:17;99304.38;;;17.81;42.22
67738;BME280;54534;43.612;1.572;2023-04-09T02:59:43;99306.22;;;17.81;42.62
67738;BME280;54534;43.612;1.572;2023-04-09T03:02:09;99301.72;;;17.81;42.46
67738;BME280;54534;43.612;1.572;2023-04-09T03:04:34;99301.72;;;17.81;42.45
67738;BME280;54534;43.612;1.572;2023-04-09T03:07:00;99307.06;;;17.81;42.18
67738;BME280;54534;43.612;1.572;2023-04-09T03:09:25;99303.56;;;17.81;42.39
67738;BME280;54534;43.612;1.572;2023-04-09T03:11:51;99309.72;;;17.81;42.55
67738;BME280;54534;43.612;1.572;2023-04-09T03:14:16;99302.72;;;17.80;42.33
67738;BME280;54534;43.612;1.572;2023-04-09T03:16:41;99306.31;;;17.79;42.03
67738;BME280;54534;43.612;1.572;2023-04-09T03:19:07;99303.66;;;17.79;42.24
67738;BME280;54534;43.612;1.572;2023-04-09T03:21:32;99297.50;;;17.78;42.38
67738;BME280;54534;43.612;1.572;2023-04-09T03:23:57;99305.38;;;17.80;42.61
67738;BME280;54534;43.612;1.572;2023-04-09T03:26:23;99299.19;;;17.79;42.58
67738;BME280;54534;43.612;1.572;2023-04-09T03:28:48;99304.66;;;17.78;42.49
67738;BME280;54534;43.612;1.572;2023-04-09T03:31:14;99300.28;;;17.77;42.54
67738;BME280;54534;43.612;1.572;2023-04-09T03:33:39;99295.81;;;17.77;42.12
67738;BME280;54534;43.612;1.572;2023-04-09T03:36:05;99294.97;;;17.77;42.22
67738;BME280;54534;43.612;1.572;2023-04-09T03:38:30;99297.63;;;17.77;42.27
67738;BME280;54534;43.612;1.572;2023-04-09T03:40:56;99295.09;;;17.75;42.53
67738;BME280;54534;43.612;1.572;2023-04-09T03:43:21;99298.56;;;17.76;42.29
67738;BME280;54534;43.612;1.572;2023-04-09T03:45:46;99303.88;;;17.76;42.01
67738;BME280;54534;43.612;1.572;2023-04-09T03:48:12;99300.28;;;17.77;42.09
67738;BME280;54534;43.612;1.572;2023-04-09T03:50:40;99298.56;;;17.76;42.40
67738;BME280;54534;43.612;1.572;2023-04-09T03:53:06;99302.22;;;17.75;42.61
67738;BME280;54534;43.612;1.572;2023-04-09T03:55:32;99299.56;;;17.75;42.17
67738;BME280;54534;43.612;1.572;2023-04-09T03:57:57;99302.22;;;17.75;42.17
67738;BME280;54534;43.612;1.572;2023-04-09T04:00:23;99296.03;;;17.74;42.41
67738;BME280;54534;43.612;1.572;2023-04-09T04:02:49;99296.91;;;17.75;42.43
67738;BME280;54534;43.612;1.572;2023-04-09T04:05:14;99300.50;;;17.74;42.36
67738;BME280;54534;43.612;1.572;2023-04-09T04:07:39;99303.16;;;17.74;42.19
67738;BME280;54534;43.612;1.572;2023-04-09T04:10:08;99301.34;;;17.74;42.53
67738;BME280;54534;43.612;1.572;2023-04-09T04:12:34;99304.03;;;17.74;42.22
67738;BME280;54534;43.612;1.572;2023-04-09T04:15:00;99299.66;;;17.73;42.27
67738;BME280;54534;43.612;1.572;2023-04-09T04:17:25;99298.81;;;17.73;42.38
67738;BME280;54534;43.612;1.572;2023-04-09T04:19:50;99306.81;;;17.73;42.29
67738;BME280;54534;43.612;1.572;2023-04-09T04:22:16;99297.13;;;17.72;42.48
67738;BME280;54534;43.612;1.572;2023-04-09T04:24:41;99297.13;;;17.72;42.25
67738;BME280;54534;43.612;1.572;2023-04-09T04:27:06;99296.25;;;17.71;42.45
67738;BME280;54534;43.612;1.572;2023-04-09T04:29:32;99301.59;;;17.71;42.11
67738;BME280;54534;43.612;1.572;2023-04-09T04:31:57;99293.59;;;17.71;42.38
67738;BME280;54534;43.612;1.572;2023-04-09T04:34:23;99290.09;;;17.71;42.28
67738;BME280;54534;43.612;1.572;2023-04-09T04:36:48;99299.06;;;17.70;42.41
67738;BME280;54534;43.612;1.572;2023-04-09T04:39:14;99299.06;;;17.70;42.35
67738;BME280;54534;43.612;1.572;2023-04-09T04:41:39;99299.91;;;17.70;41.95
67738;BME280;54534;43.612;1.572;2023-04-09T04:44:05;99301.72;;;17.70;42.29
67738;BME280;54534;43.612;1.572;2023-04-09T04:46:30;99309.69;;;17.70;42.28
67738;BME280;54534;43.612;1.572;2023-04-09T04:48:56;99311.50;;;17.69;41.95
67738;BME280;54534;43.612;1.572;2023-04-09T04:51:21;99317.66;;;17.70;42.16
67738;BME280;54534;43.612;1.572;2023-04-09T04:53:46;99323.00;;;17.70;41.98
67738;BME280;54534;43.612;1.572;2023-04-09T04:56:15;99317.66;;;17.70;42.21
67738;BME280;54534;43.612;1.572;2023-04-09T04:58:41;99317.75;;;17.68;42.17
67738;BME280;54534;43.612;1.572;2023-04-09T05:01:06;99314.16;;;17.69;41.91
67738;BME280;54534;43.612;1.572;2023-04-09T05:03:32;99318.63;;;17.68;42.03
67738;BME280;54534;43.612;1.572;2023-04-09T05:05:57;99317.88;;;17.66;42.01
67738;BME280;54534;43.612;1.572;2023-04-09T05:08:23;99325.88;;;17.66;42.27
67738;BME280;54534;43.612;1.572;2023-04-09T05:10:48;99324.91;;;17.67;42.31
67738;BME280;54534;43.612;1.572;2023-04-09T05:13:13;99330.25;;;17.67;42.02
67738;BME280;54534;43.612;1.572;2023-04-09T05:15:40;99325.00;;;17.66;42.31
67738;BME280;54534;43.612;1.572;2023-04-09T05:18:07;99336.50;;;17.66;41.84
67738;BME280;54534;43.612;1.572;2023-04-09T05:20:33;99334.78;;;17.65;42.26
67738;BME280;54534;43.612;1.572;2023-04-09T05:22:58;99342.78;;;17.65;41.86
67738;BME280;54534;43.612;1.572;2023-04-09T05:25:24;99348.09;;;17.65;41.86
67738;BME280;54534;43.612;1.572;2023-04-09T05:27:49;99352.59;;;17.65;41.97
67738;BME280;54534;43.612;1.572;2023-04-09T05:30:15;99346.41;;;17.64;41.97
67738;BME280;54534;43.612;1.572;2023-04-09T05:32:40;99357.06;;;17.64;42.12
67738;BME280;54534;43.612;1.572;2023-04-09T05:35:06;99359.72;;;17.64;41.87
67738;BME280;54534;43.612;1.572;2023-04-09T05:37:31;99359.72;;;17.64;41.72
67738;BME280;54534;43.612;1.572;2023-04-09T05:39:57;99358.84;;;17.64;41.72
67738;BME280;54534;43.612;1.572;2023-04-09T05:42:22;99365.97;;;17.63;41.81
67738;BME280;54534;43.612;1.572;2023-04-09T05:44:47;99365.13;;;17.63;41.87
67738;BME280;54534;43.612;1.572;2023-04-09T05:47:13;99368.63;;;17.63;41.91
67738;BME280;54534;43.612;1.572;2023-04-09T05:49:38;99372.28;;;17.62;41.95
67738;BME280;54534;43.612;1.572;2023-04-09T05:52:04;99366.09;;;17.62;41.62
67738;BME280;54534;43.612;1.572;2023-04-09T05:54:29;99374.16;;;17.60;41.89
67738;BME280;54534;43.612;1.572;2023-04-09T05:56:55;99374.06;;;17.62;41.68
67738;BME280;54534;43.612;1.572;2023-04-09T05:59:20;99369.72;;;17.61;41.89
67738;BME280;54534;43.612;1.572;2023-04-09T06:01:46;99369.84;;;17.59;41.75
67738;BME280;54534;43.612;1.572;2023-04-09T06:04:12;99368.84;;;17.60;41.84
67738;BME280;54534;43.612;1.572;2023-04-09T06:06:37;99375.16;;;17.59;41.79
67738;BME280;54534;43.612;1.572;2023-04-09T06:09:03;99375.16;;;17.59;41.77
67738;BME280;54534;43.612;1.572;2023-04-09T06:11:29;99383.13;;;17.59;42.08
67738;BME280;54534;43.612;1.572;2023-04-09T06:13:54;99386.75;;;17.58;41.82
67738;BME280;54534;43.612;1.572;2023-04-09T06:16:20;99386.75;;;17.58;42.12
67738;BME280;54534;43.612;1.572;2023-04-09T06:18:45;99398.22;;;17.59;42.22
67738;BME280;54534;43.612;1.572;2023-04-09T06:21:13;99402.69;;;17.58;42.06
67738;BME280;54534;43.612;1.572;2023-04-09T06:23:39;99400.97;;;17.57;41.98
67738;BME280;54534;43.612;1.572;2023-04-09T06:26:05;99401.84;;;17.58;41.80
67738;BME280;54534;43.612;1.572;2023-04-09T06:28:30;99405.34;;;17.58;41.75
67738;BME280;54534;43.612;1.572;2023-04-09T06:30:57;99409.81;;;17.58;42.13
67738;BME280;54534;43.612;1.572;2023-04-09T06:33:22;99396.75;;;17.54;42.13
67738;BME280;54534;43.612;1.572;2023-04-09T06:35:48;99398.31;;;17.57;41.73
67738;BME280;54534;43.612;1.572;2023-04-09T06:38:14;99393.97;;;17.56;41.71
67738;BME280;54534;43.612;1.572;2023-04-09T06:40:40;99409.09;;;17.55;42.13
67738;BME280;54534;43.612;1.572;2023-04-09T06:43:06;99412.59;;;17.56;41.70
67738;BME280;54534;43.612;1.572;2023-04-09T06:45:32;99408.22;;;17.55;41.64
67738;BME280;54534;43.612;1.572;2023-04-09T06:48:01;99410.03;;;17.54;41.81
67738;BME280;54534;43.612;1.572;2023-04-09T06:50:26;99411.75;;;17.55;41.94
67738;BME280;54534;43.612;1.572;2023-04-09T06:52:52;99408.22;;;17.55;41.69
67738;BME280;54534;43.612;1.572;2023-04-09T06:55:18;99404.84;;;17.53;42.12
67738;BME280;54534;43.612;1.572;2023-04-09T06:57:44;99407.38;;;17.54;41.96
67738;BME280;54534;43.612;1.572;2023-04-09T07:00:09;99408.34;;;17.53;42.04
67738;BME280;54534;43.612;1.572;2023-04-09T07:02:35;99408.34;;;17.53;42.00
67738;BME280;54534;43.612;1.572;2023-04-09T07:05:01;99414.53;;;17.54;41.62
67738;BME280;54534;43.612;1.572;2023-04-09T07:07:28;99413.66;;;17.53;41.97
67738;BME280;54534;43.612;1.572;2023-04-09T07:09:53;99424.19;;;17.55;41.95
67738;BME280;54534;43.612;1.572;2023-04-09T07:12:29;99421.66;;;17.53;41.75
67738;BME280;54534;43.612;1.572;2023-04-09T07:14:59;99423.56;;;17.51;41.78
67738;BME280;54534;43.612;1.572;2023-04-09T07:17:25;99438.53;;;17.52;41.74
67738;BME280;54534;43.612;1.572;2023-04-09T07:19:50;99431.41;;;17.53;41.80
67738;BME280;54534;43.612;1.572;2023-04-09T07:22:16;99440.25;;;17.53;41.98
67738;BME280;54534;43.612;1.572;2023-04-09T07:24:42;99432.38;;;17.52;41.81
67738;BME280;54534;43.612;1.572;2023-04-09T07:27:07;99435.03;;;17.52;42.06
67738;BME280;54534;43.612;1.572;2023-04-09T07:29:33;99433.22;;;17.52;41.82
67738;BME280;54534;43.612;1.572;2023-04-09T07:31:59;99425.38;;;17.51;41.75
67738;BME280;54534;43.612;1.572;2023-04-09T07:34:25;99435.03;;;17.52;41.61
67738;BME280;54534;43.612;1.572;2023-04-09T07:36:51;99440.34;;;17.52;41.89
67738;BME280;54534;43.612;1.572;2023-04-09T07:39:19;99442.19;;;17.51;42.05
67738;BME280;54534;43.612;1.572;2023-04-09T07:41:45;99445.66;;;17.52;41.56
67738;BME280;54534;43.612;1.572;2023-04-09T07:44:12;99441.31;;;17.51;41.87
67738;BME280;54534;43.612;1.572;2023-04-09T07:46:38;99443.00;;;17.52;41.90
67738;BME280;54534;43.612;1.572;2023-04-09T07:49:04;99443.00;;;17.52;41.65
67738;BME280;54534;43.612;1.572;2023-04-09T07:51:30;99434.22;;;17.51;41.53
67738;BME280;54534;43.612;1.572;2023-04-09T07:53:55;99440.34;;;17.52;41.81
67738;BME280;54534;43.612;1.572;2023-04-09T07:56:21;99445.78;;;17.50;41.75
67738;BME280;54534;43.612;1.572;2023-04-09T07:58:46;99442.28;;;17.50;42.15
67738;BME280;54534;43.612;1.572;2023-04-09T08:01:13;99449.31;;;17.51;42.02
67738;BME280;54534;43.612;1.572;2023-04-09T08:03:39;99445.78;;;17.50;41.61
67738;BME280;54534;43.612;1.572;2023-04-09T08:06:04;99447.59;;;17.50;41.80
67738;BME280;54534;43.612;1.572;2023-04-09T08:08:30;99450.16;;;17.51;41.84
67738;BME280;54534;43.612;1.572;2023-04-09T08:10:55;99447.59;;;17.50;41.85
67738;BME280;54534;43.612;1.572;2023-04-09T08:13:22;99448.44;;;17.50;41.90
67738;BME280;54534;43.612;1.572;2023-04-09T08:15:48;99458.13;;;17.51;41.99
67738;BME280;54534;43.612;1.572;2023-04-09T08:18:14;99456.28;;;17.52;41.60
67738;BME280;54534;43.612;1.572;2023-04-09T08:20:39;99459.06;;;17.50;41.71
67738;BME280;54534;43.612;1.572;2023-04-09T08:23:12;99452.91;;;17.50;41.95
67738;BME280;54534;43.612;1.572;2023-04-09T08:25:37;99452.06;;;17.49;41.99
67738;BME280;54534;43.612;1.572;2023-04-09T08:28:02;99450.25;;;17.50;41.93
67738;BME280;54534;43.612;1.572;2023-04-09T08:30:28;99450.25;;;17.50;41.81
67738;BME280;54534;43.612;1.572;2023-04-09T08:32:54;99447.59;;;17.50;41.89
67738;BME280;54534;43.612;1.572;2023-04-09T08:35:19;99452.91;;;17.50;41.70
67738;BME280;54534;43.612;1.572;2023-04-09T08:37:45;99455.56;;;17.50;41.79
67738;BME280;54534;43.612;1.572;2023-04-09T08:40:11;99455.56;;;17.50;41.98
67738;BME280;54534;43.612;1.572;2023-04-09T08:42:44;99459.06;;;17.50;41.86
67738;BME280;54534;43.612;1.572;2023-04-09T08:45:11;99464.41;;;17.50;41.91
67738;BME280;54534;43.612;1.572;2023-04-09T08:47:37;99467.06;;;17.50;41.86
67738;BME280;54534;43.612;1.572;2023-04-09T08:50:05;99468.84;;;17.50;41.57
67738;BME280;54534;43.612;1.572;2023-04-09T08:52:31;99465.25;;;17.51;41.84
67738;BME280;54534;43.612;1.572;2023-04-09T08:54:57;99459.94;;;17.51;41.81
67738;BME280;54534;43.612;1.572;2023-04-09T08:57:22;99460.88;;;17.50;41.44
67738;BME280;54534;43.612;1.572;2023-04-09T08:59:47;99459.94;;;17.51;41.91
67738;BME280;54534;43.612;1.572;2023-04-09T09:02:13;99458.22;;;17.50;41.80
67738;BME280;54534;43.612;1.572;2023-04-09T09:04:49;99447.72;;;17.48;41.50
67738;BME280;54534;43.612;1.572;2023-04-09T09:07:16;99444.94;;;17.50;41.83
67738;BME280;54534;43.612;1.572;2023-04-09T09:09:54;99441.41;;;17.49;41.79
67738;BME280;54534;43.612;1.572;2023-04-09T09:12:36;99448.56;;;17.49;41.63
67738;BME280;54534;43.612;1.572;2023-04-09T09:15:04;99457.38;;;17.49;41.62
67738;BME280;54534;43.612;1.572;2023-04-09T09:17:30;99457.38;;;17.49;41.61
67738;BME280;54534;43.612;1.572;2023-04-09T09:19:56;99454.72;;;17.49;41.77
67738;BME280;54534;43.612;1.572;2023-04-09T09:22:23;99456.53;;;17.49;41.73
67738;BME280;54534;43.612;1.572;2023-04-09T09:24:50;99455.56;;;17.50;41.43
67738;BME280;54534;43.612;1.572;2023-04-09T09:27:33;99458.22;;;17.50;41.72
67738;BME280;54534;43.612;1.572;2023-04-09T09:30:01;99456.53;;;17.49;41.61
67738;BME280;54534;43.612;1.572;2023-04-09T09:32:27;99453.88;;;17.49;41.48
67738;BME280;54534;43.612;1.572;2023-04-09T09:35:00;99454.72;;;17.49;41.84
67738;BME280;54534;43.612;1.572;2023-04-09T09:37:27;99437.94;;;17.49;41.84
67738;BME280;54534;43.612;1.572;2023-04-09T09:39:53;99450.25;;;17.50;41.74
67738;BME280;54534;43.612;1.572;2023-04-09T09:42:19;99447.72;;;17.48;41.39
67738;BME280;54534;43.612;1.572;2023-04-09T09:44:46;99452.06;;;17.49;41.55
67738;BME280;54534;43.612;1.572;2023-04-09T09:47:11;99449.41;;;17.49;41.45
67738;BME280;54534;43.612;1.572;2023-04-09T09:49:40;99444.94;;;17.50;41.33
67738;BME280;54534;43.612;1.572;2023-04-09T09:52:09;99444.94;;;17.50;41.62
67738;BME280;54534;43.612;1.572;2023-04-09T09:54:42;99437.09;;;17.48;41.48
67738;BME280;54534;43.612;1.572;2023-04-09T09:57:10;99440.59;;;17.49;41.71
67738;BME280;54534;43.612;1.572;2023-04-09T10:00:05;99435.16;;;17.50;41.73
67738;BME280;54534;43.612;1.572;2023-04-09T10:02:38;99441.41;;;17.49;41.59
67738;BME280;54534;43.612;1.572;2023-04-09T10:05:05;99446.72;;;17.49;41.67
67738;BME280;54534;43.612;1.572;2023-04-09T10:07:32;99445.91;;;17.49;41.38
67738;BME280;54534;43.612;1.572;2023-04-09T10:10:00;99442.28;;;17.50;41.58
67738;BME280;54534;43.612;1.572;2023-04-09T10:12:26;99443.13;;;17.50;41.43
67738;BME280;54534;43.612;1.572;2023-04-09T10:14:53;99448.44;;;17.50;41.52
67738;BME280;54534;43.612;1.572;2023-04-09T10:17:19;99447.59;;;17.50;41.44
67738;BME280;54534;43.612;1.572;2023-04-09T10:20:04;99444.84;;;17.51;41.49
67738;BME280;54534;43.612;1.572;2023-04-09T10:22:33;99429.97;;;17.49;41.26
67738;BME280;54534;43.612;1.572;2023-04-09T10:24:59;99437.09;;;17.48;41.67
67738;BME280;54534;43.612;1.572;2023-04-09T10:27:25;99438.66;;;17.51;41.44
67738;BME280;54534;43.612;1.572;2023-04-09T10:29:51;99437.81;;;17.50;41.29
67738;BME280;54534;43.612;1.572;2023-04-09T10:32:18;99437.81;;;17.50;41.31
67738;BME280;54534;43.612;1.572;2023-04-09T10:34:48;99424.66;;;17.49;41.21
67738;BME280;54534;43.612;1.572;2023-04-09T10:37:24;99428.03;;;17.51;41.49
67738;BME280;54534;43.612;1.572;2023-04-09T10:39:51;99426.31;;;17.50;41.38
67738;BME280;54534;43.612;1.572;2023-04-09T10:45:14;99422.72;;;17.51;41.41
67738;BME280;54534;43.612;1.572;2023-04-09T10:47:42;99423.66;;;17.50;41.39
67738;BME280;54534;43.612;1.572;2023-04-09T10:50:23;99422.72;;;17.51;41.20
67738;BME280;54534;43.612;1.572;2023-04-09T10:52:54;99421.00;;;17.50;41.36
67738;BME280;54534;43.612;1.572;2023-04-09T10:55:38;99412.09;;;17.51;41.19
67738;BME280;54534;43.612;1.572;2023-04-09T10:58:06;99417.41;;;17.51;41.50
67738;BME280;54534;43.612;1.572;2023-04-09T11:00:52;99419.19;;;17.50;41.18
67738;BME280;54534;43.612;1.572;2023-04-09T11:03:24;99412.94;;;17.51;41.43
67738;BME280;54534;43.612;1.572;2023-04-09T11:05:54;99407.72;;;17.50;41.58
67738;BME280;54534;43.612;1.572;2023-04-09T11:08:21;99405.91;;;17.50;41.29
67738;BME280;54534;43.612;1.572;2023-04-09T11:10:47;99406.75;;;17.51;41.35
67738;BME280;54534;43.612;1.572;2023-04-09T11:13:14;99409.44;;;17.51;41.13
67738;BME280;54534;43.612;1.572;2023-04-09T11:15:40;99403.13;;;17.52;41.49
67738;BME280;54534;43.612;1.572;2023-04-09T11:18:06;99396.13;;;17.51;41.43
67738;BME280;54534;43.612;1.572;2023-04-09T11:20:34;99395.28;;;17.50;41.38
67738;BME280;54534;43.612;1.572;2023-04-09T11:23:00;99391.75;;;17.50;41.53
67738;BME280;54534;43.612;1.572;2023-04-09T11:25:28;99392.50;;;17.52;41.16
67738;BME280;54534;43.612;1.572;2023-04-09T11:27:54;99392.50;;;17.52;41.43
67738;BME280;54534;43.612;1.572;2023-04-09T11:30:20;99386.34;;;17.51;41.32
67738;BME280;54534;43.612;1.572;2023-04-09T11:32:45;99393.34;;;17.52;41.46
67738;BME280;54534;43.612;1.572;2023-04-09T11:35:13;99389.84;;;17.52;41.56
67738;BME280;54534;43.612;1.572;2023-04-09T11:37:40;99393.34;;;17.52;41.39
67738;BME280;54534;43.612;1.572;2023-04-09T11:40:06;99390.69;;;17.52;41.37
67738;BME280;54534;43.612;1.572;2023-04-09T11:42:33;99393.47;;;17.51;41.51
67738;BME280;54534;43.612;1.572;2023-04-09T11:44:59;99389.00;;;17.51;41.23
67738;BME280;54534;43.612;1.572;2023-04-09T11:47:25;99388.88;;;17.53;41.05
67738;BME280;54534;43.612;1.572;2023-04-09T11:49:51;99399.53;;;17.53;41.31
67738;BME280;54534;43.612;1.572;2023-04-09T11:52:17;99391.53;;;17.53;41.33
67738;BME280;54534;43.612;1.572;2023-04-09T11:54:52;99391.53;;;17.53;41.28
67738;BME280;54534;43.612;1.572;2023-04-09T11:57:17;99388.88;;;17.53;41.14
67738;BME280;54534;43.612;1.572;2023-04-09T11:59:43;99392.41;;;17.53;41.16
67738;BME280;54534;43.612;1.572;2023-04-09T12:02:08;99395.06;;;17.53;41.00
67738;BME280;54534;43.612;1.572;2023-04-09T12:04:33;99394.19;;;17.53;41.52
67738;BME280;54534;43.612;1.572;2023-04-09T12:06:59;99397.72;;;17.53;41.34
67738;BME280;54534;43.612;1.572;2023-04-09T12:09:25;99393.25;;;17.54;41.10
67738;BME280;54534;43.612;1.572;2023-04-09T12:11:50;99403.88;;;17.54;41.08
67738;BME280;54534;43.612;1.572;2023-04-09T12:14:17;99402.91;;;17.55;41.41
67738;BME280;54534;43.612;1.572;2023-04-09T12:16:43;99402.19;;;17.53;41.49
67738;BME280;54534;43.612;1.572;2023-04-09T12:19:12;99401.22;;;17.54;41.05
67738;BME280;54534;43.612;1.572;2023-04-09T12:21:49;99403.88;;;17.54;41.08
67738;BME280;54534;43.612;1.572;2023-04-09T12:24:17;99402.91;;;17.55;41.36
67738;BME280;54534;43.612;1.572;2023-04-09T12:26:46;99394.94;;;17.55;41.15
67738;BME280;54534;43.612;1.572;2023-04-09T12:29:14;99398.44;;;17.55;41.13
67738;BME280;54534;43.612;1.572;2023-04-09T12:31:40;99394.19;;;17.53;41.19
67738;BME280;54534;43.612;1.572;2023-04-09T12:34:05;99397.59;;;17.55;41.17
67738;BME280;54534;43.612;1.572;2023-04-09T12:36:31;99382.50;;;17.55;41.41
67738;BME280;54534;43.612;1.572;2023-04-09T12:38:56;99384.31;;;17.55;41.27
67738;BME280;54534;43.612;1.572;2023-04-09T12:41:22;99393.13;;;17.55;41.39
67738;BME280;54534;43.612;1.572;2023-04-09T12:43:48;99389.63;;;17.55;41.30
67738;BME280;54534;43.612;1.572;2023-04-09T12:46:13;99388.66;;;17.56;41.24
67738;BME280;54534;43.612;1.572;2023-04-09T12:48:39;99388.75;;;17.54;41.26
67738;BME280;54534;43.612;1.572;2023-04-09T12:51:05;99378.03;;;17.56;41.14
67738;BME280;54534;43.612;1.572;2023-04-09T12:53:31;99393.97;;;17.56;41.00
67738;BME280;54534;43.612;1.572;2023-04-09T12:55:56;99390.34;;;17.57;41.38
67738;BME280;54534;43.612;1.572;2023-04-09T12:58:22;99389.53;;;17.56;41.23
67738;BME280;54534;43.612;1.572;2023-04-09T13:00:47;99383.22;;;17.58;41.28
67738;BME280;54534;43.612;1.572;2023-04-09T13:03:13;99379.72;;;17.57;41.36
67738;BME280;54534;43.612;1.572;2023-04-09T13:05:41;99385.03;;;17.57;41.47
67738;BME280;54534;43.612;1.572;2023-04-09T13:08:06;99382.38;;;17.57;41.39
67738;BME280;54534;43.612;1.572;2023-04-09T13:10:32;99381.41;;;17.58;41.41
67738;BME280;54534;43.612;1.572;2023-04-09T13:12:58;99387.69;;;17.57;41.41